Time;durP1;ratioP1;P1;durP2;ratioP2;P2;SDS_P1;SDS_P2;PMS_P1;PMS_P2;Temp;Humidity;BMP_temperature;BMP_pressure;BME280_temperature;BME280_humidity;BME280_pressure;Samples;Min_cycle;Max_cycle;Signal;HPM_P1;HPM_P2
2022/09/05 00:48:26;;;;;;;16.50;15.70;;;16.60;99.90;;;;;;5152932;23;21019;-74
2022/09/05 00:51:10;;;;;;;16.87;16.10;;;16.60;99.90;;;;;;4952700;28;20457;-73
2022/09/05 00:53:48;;;;;;;18.77;17.30;;;16.50;99.90;;;;;;4952786;28;20460;-75
2022/09/05 00:56:33;;;;;;;17.17;16.27;;;16.40;99.90;;;;;;4952217;28;20515;-72
2022/09/05 00:59:39;;;;;;;18.20;16.90;;;16.40;99.90;;;;;;4952234;28;20471;-72
2022/09/05 01:02:14;;;;;;;17.20;16.30;;;16.50;99.90;;;;;;4952180;28;20448;-74
2022/09/05 01:04:48;;;;;;;17.47;16.57;;;16.40;99.90;;;;;;4952391;28;20491;-74
2022/09/05 01:07:44;;;;;;;17.40;16.40;;;16.40;99.90;;;;;;4952450;28;20872;-73
2022/09/05 01:10:19;;;;;;;17.50;16.60;;;16.40;99.90;;;;;;4950786;28;20452;-74
2022/09/05 01:13:01;;;;;;;18.43;17.40;;;16.40;99.90;;;;;;4952063;28;20479;-74
2022/09/05 01:15:35;;;;;;;19.73;18.00;;;16.30;99.90;;;;;;4951914;28;20444;-73
2022/09/05 01:18:29;;;;;;;19.20;18.03;;;16.30;99.90;;;;;;4951872;28;20547;-74
2022/09/05 01:21:12;;;;;;;17.80;16.80;;;16.30;99.90;;;;;;4951871;28;20448;-73
2022/09/05 01:24:11;;;;;;;18.30;17.30;;;16.30;99.90;;;;;;4951443;28;20456;-74
2022/09/05 01:26:56;;;;;;;19.17;17.53;;;16.20;99.90;;;;;;4951908;28;20449;-75
2022/09/05 01:29:31;;;;;;;17.57;16.67;;;16.20;99.90;;;;;;4951846;28;20452;-75
2022/09/05 01:32:29;;;;;;;17.63;16.63;;;16.30;99.90;;;;;;4951496;28;20526;-74
2022/09/05 01:35:19;;;;;;;19.50;17.90;;;16.20;99.90;;;;;;4951714;29;20453;-74
2022/09/05 01:37:50;;;;;;;17.93;16.73;;;16.20;99.90;;;;;;4950702;28;20601;-72
2022/09/05 01:40:24;;;;;;;18.00;16.80;;;16.20;99.90;;;;;;4951143;28;20457;-73
2022/09/05 01:43:04;;;;;;;17.07;16.07;;;16.20;99.90;;;;;;4951144;28;20457;-74
2022/09/05 01:45:49;;;;;;;17.57;16.53;;;16.20;99.90;;;;;;4950966;28;20496;-73
2022/09/05 01:48:30;;;;;;;16.53;15.63;;;16.20;99.90;;;;;;4950936;28;20511;-74
2022/09/05 01:51:12;;;;;;;18.10;17.03;;;16.10;99.90;;;;;;4951333;29;20830;-73
2022/09/05 01:53:45;;;;;;;19.33;17.93;;;16.10;99.90;;;;;;4951531;28;20459;-73
2022/09/05 01:56:38;;;;;;;18.33;17.17;;;16.10;99.90;;;;;;4951136;28;20456;-73
2022/09/05 01:59:26;;;;;;;19.00;17.53;;;16.00;99.90;;;;;;4950979;28;20452;-75
2022/09/05 02:02:18;;;;;;;18.47;16.97;;;16.10;99.90;;;;;;4951610;28;20825;-74
2022/09/05 02:05:08;;;;;;;17.50;16.60;;;16.10;99.90;;;;;;4950751;29;20511;-76
2022/09/05 02:07:47;;;;;;;15.80;14.90;;;16.00;99.90;;;;;;4951205;28;20787;-74
2022/09/05 02:10:49;;;;;;;17.73;16.73;;;16.00;99.90;;;;;;4950575;28;20449;-74
2022/09/05 11:23:32;;;;;;;16.53;15.83;;;37.20;44.70;;;;;;5509540;23;20584;-74
2022/09/05 11:26:03;;;;;;;16.00;15.40;;;35.80;48.70;;;;;;4933565;29;20492;-73
2022/09/05 11:28:38;;;;;;;15.70;15.20;;;35.80;49.60;;;;;;4935087;29;20545;-72
2022/09/05 11:31:12;;;;;;;17.43;16.73;;;36.00;48.90;;;;;;4931043;29;20467;-72
2022/09/05 11:33:59;;;;;;;17.20;16.40;;;37.00;47.60;;;;;;4935114;29;20457;-74
2022/09/05 11:36:31;;;;;;;17.67;16.97;;;36.90;46.40;;;;;;4935017;29;20457;-73
2022/09/05 11:39:12;;;;;;;16.27;15.70;;;37.00;46.80;;;;;;4935255;29;20929;-74
2022/09/05 11:42:00;;;;;;;17.60;16.90;;;36.50;46.90;;;;;;4935230;29;20488;-72
2022/09/05 11:44:34;;;;;;;17.30;16.60;;;37.50;45.90;;;;;;4935358;29;20456;-72
2022/09/05 11:47:33;;;;;;;17.93;17.33;;;37.90;45.30;;;;;;4935185;29;20457;-72
2022/09/05 11:50:25;;;;;;;16.93;16.23;;;38.30;44.90;;;;;;4935010;29;20469;-74
2022/09/05 11:53:37;;;;;;;16.40;15.60;;;37.50;44.80;;;;;;4934918;29;21009;-73
2022/09/05 11:56:41;;;;;;;16.53;15.93;;;36.10;45.80;;;;;;4934930;29;20647;-73
2022/09/05 11:59:23;;;;;;;16.90;16.27;;;36.40;45.70;;;;;;4919094;29;20512;-73
2022/09/05 12:02:00;;;;;;;16.50;16.00;;;37.80;42.20;;;;;;4934893;29;20504;-72
2022/09/05 12:04:42;;;;;;;17.53;16.83;;;39.00;41.50;;;;;;4934665;29;20795;-72
2022/09/05 12:07:32;;;;;;;17.37;16.67;;;39.70;40.90;;;;;;4934410;29;20456;-72
2022/09/05 12:10:25;;;;;;;17.70;17.10;;;39.90;40.00;;;;;;4934933;29;20456;-74
2022/09/05 12:13:07;;;;;;;18.27;17.07;;;40.50;38.60;;;;;;4934993;29;20912;-74
2022/09/05 12:15:36;;;;;;;17.33;16.63;;;40.10;38.70;;;;;;4934808;29;20446;-74
2022/09/05 12:18:27;;;;;;;16.93;16.33;;;38.40;39.60;;;;;;4934410;29;20989;-73
2022/09/05 12:21:05;;;;;;;16.77;16.27;;;37.30;41.90;;;;;;4931393;29;20556;-79
2022/09/05 12:23:45;;;;;;;17.10;16.50;;;37.60;41.60;;;;;;4912789;29;20497;-79
2022/09/05 12:26:18;;;;;;;17.37;16.77;;;38.10;41.40;;;;;;4913036;29;20494;-79
2022/09/05 12:28:51;;;;;;;17.07;16.33;;;38.30;41.40;;;;;;4912973;29;21185;-79
2022/09/05 12:31:25;;;;;;;16.93;16.33;;;37.70;42.10;;;;;;4913021;29;20462;-79
2022/09/05 12:33:51;;;;;;;15.90;15.30;;;36.20;44.00;;;;;;4913857;29;20454;-79
2022/09/05 12:36:34;;;;;;;16.30;15.60;;;35.60;44.30;;;;;;4914626;29;20459;-79
2022/09/05 12:39:15;;;;;;;16.83;16.23;;;36.60;44.10;;;;;;4914573;29;20462;-78
2022/09/05 12:41:50;;;;;;;17.10;16.40;;;36.90;43.10;;;;;;4914615;29;20446;-77
2022/09/05 12:44:40;;;;;;;16.60;16.00;;;37.40;42.10;;;;;;4914579;29;20465;-77
2022/09/05 12:47:10;;;;;;;16.70;16.10;;;38.20;41.60;;;;;;4914424;29;20497;-78
2022/09/05 12:49:40;;;;;;;16.07;15.47;;;37.30;42.00;;;;;;4915852;29;20450;-77
2022/09/05 12:52:14;;;;;;;15.60;15.00;;;36.20;43.90;;;;;;4912699;29;20462;-78
2022/09/05 12:54:49;;;;;;;15.60;15.00;;;35.50;45.30;;;;;;4914084;29;20458;-78
2022/09/05 12:57:26;;;;;;;16.47;15.80;;;35.70;45.30;;;;;;4916979;29;20549;-80
2022/09/05 12:59:57;;;;;;;16.00;15.30;;;35.70;44.60;;;;;;4918079;29;20485;-80
2022/09/05 13:02:29;;;;;;;16.03;15.43;;;35.60;44.70;;;;;;4914992;29;20529;-81
2022/09/05 13:05:00;;;;;;;15.40;14.80;;;35.80;44.70;;;;;;4914137;29;20458;-81
2022/09/05 13:07:37;;;;;;;16.40;15.80;;;36.20;44.70;;;;;;4914049;29;20456;-80
2022/09/05 13:10:13;;;;;;;16.00;15.07;;;36.50;43.70;;;;;;4913989;29;20953;-81
2022/09/05 13:12:47;;;;;;;15.70;15.20;;;35.40;44.70;;;;;;4914110;29;20453;-80
2022/09/05 13:15:22;;;;;;;15.30;14.80;;;35.30;44.50;;;;;;4914081;29;20557;-80
2022/09/05 13:17:53;;;;;;;15.80;15.20;;;34.50;45.60;;;;;;4913520;29;20461;-80
2022/09/05 13:20:33;;;;;;;16.17;15.57;;;34.90;46.10;;;;;;4913943;29;20458;-82
2022/09/05 13:23:05;;;;;;;16.40;15.63;;;34.80;46.10;;;;;;4913712;29;20493;-81
2022/09/05 13:25:35;;;;;;;15.97;15.27;;;35.40;45.00;;;;;;4913745;29;20867;-81
2022/09/05 13:28:07;;;;;;;15.80;15.20;;;35.90;44.90;;;;;;4913884;29;20824;-80
2022/09/05 13:30:48;;;;;;;15.67;15.13;;;36.60;44.20;;;;;;4913710;29;20497;-80
2022/09/05 13:33:22;;;;;;;17.70;16.97;;;37.40;42.60;;;;;;4913443;29;20545;-80
2022/09/05 13:36:02;;;;;;;15.93;15.33;;;37.30;41.90;;;;;;4913823;29;20550;-80
2022/09/05 13:38:58;;;;;;;17.23;16.43;;;37.00;42.70;;;;;;4913283;29;20454;-80
2022/09/05 13:41:29;;;;;;;15.73;15.13;;;37.60;41.80;;;;;;4913491;29;20458;-80
2022/09/05 13:43:58;;;;;;;15.50;15.00;;;37.10;42.00;;;;;;4913459;29;20493;-81
2022/09/05 13:46:37;;;;;;;15.97;15.37;;;36.20;43.30;;;;;;4913075;29;20490;-80
2022/09/05 13:49:13;;;;;;;16.17;15.57;;;35.80;44.60;;;;;;4913471;29;20978;-81
2022/09/05 13:51:43;;;;;;;15.27;14.67;;;36.00;44.10;;;;;;4913577;29;20462;-80
2022/09/05 13:54:35;;;;;;;15.40;14.80;;;35.00;44.90;;;;;;4913174;29;20450;-79
2022/09/05 13:57:21;;;;;;;15.47;14.83;;;34.50;45.10;;;;;;4913401;29;20887;-80
2022/09/05 14:00:22;;;;;;;16.87;16.20;;;34.70;45.60;;;;;;4913277;29;20466;-79
2022/09/05 14:03:13;;;;;;;15.10;14.60;;;35.00;45.20;;;;;;4913547;29;20458;-80
2022/09/05 14:05:47;;;;;;;16.60;15.80;;;34.40;46.20;;;;;;4913050;29;20490;-78
2022/09/05 14:08:34;;;;;;;15.83;15.23;;;34.30;46.30;;;;;;4913051;29;20454;-79
2022/09/05 14:11:39;;;;;;;15.77;15.03;;;34.40;46.30;;;;;;4913194;29;20450;-80
2022/09/05 14:14:11;;;;;;;16.00;15.33;;;34.10;46.00;;;;;;4913397;29;20986;-79
2022/09/05 14:17:02;;;;;;;15.57;14.97;;;33.10;47.20;;;;;;4913119;29;20461;-79
2022/09/05 14:22:36;;;;;;;15.57;14.87;;;32.20;48.40;;;;;;4913047;29;20843;-78
2022/09/05 14:25:06;;;;;;;15.33;14.73;;;31.70;49.20;;;;;;4875413;29;20936;-78
2022/09/05 14:27:34;;;;;;;15.43;14.73;;;31.30;49.90;;;;;;4875152;29;20596;-77
2022/09/05 14:30:02;;;;;;;14.70;14.20;;;31.10;50.70;;;;;;4877060;29;20464;-76
2022/09/05 14:32:44;;;;;;;14.97;14.37;;;30.90;51.80;;;;;;4879095;29;20456;-78
2022/09/05 14:35:23;;;;;;;15.20;14.50;;;30.60;51.70;;;;;;4879337;29;20459;-78
2022/09/05 14:37:57;;;;;;;14.80;14.10;;;30.50;51.80;;;;;;4879136;29;20456;-77
2022/09/05 14:41:11;;;;;;;14.43;13.93;;;30.50;53.00;;;;;;4878968;29;20511;-77
2022/09/05 14:44:16;;;;;;;15.50;14.50;;;30.50;52.10;;;;;;4879108;29;20956;-78
2022/09/05 14:46:56;;;;;;;18.97;15.60;;;30.50;52.80;;;;;;4878980;29;20502;-78
2022/09/05 14:49:34;;;;;;;15.10;14.53;;;30.70;52.90;;;;;;4878922;29;20468;-77
2022/09/05 14:52:14;;;;;;;14.90;14.40;;;30.70;51.70;;;;;;4878954;29;20546;-77
2022/09/05 14:54:41;;;;;;;14.43;13.93;;;30.60;52.30;;;;;;4878859;29;20460;-77
2022/09/05 14:57:14;;;;;;;15.00;14.40;;;30.60;52.40;;;;;;4878829;29;20459;-77
2022/09/05 14:59:43;;;;;;;13.90;13.30;;;30.60;52.50;;;;;;4878897;29;20553;-77
2022/09/05 15:02:20;;;;;;;15.10;14.53;;;30.50;52.80;;;;;;4878556;29;20459;-77
2022/09/05 15:04:54;;;;;;;15.17;14.67;;;30.50;53.40;;;;;;4878677;29;20530;-76
2022/09/05 15:07:25;;;;;;;14.97;14.30;;;30.50;52.70;;;;;;4878553;29;20496;-77
2022/09/05 15:10:09;;;;;;;14.83;14.33;;;30.50;52.10;;;;;;4876309;29;20460;-77
2022/09/05 15:12:46;;;;;;;13.87;13.37;;;30.50;52.20;;;;;;4874847;29;20461;-77
2022/09/05 15:15:21;;;;;;;15.87;14.90;;;30.50;52.30;;;;;;4869065;29;20452;-78
2022/09/05 15:17:52;;;;;;;14.30;13.73;;;30.40;52.20;;;;;;4867439;29;20457;-77
2022/09/05 15:20:32;;;;;;;14.70;14.00;;;30.30;52.80;;;;;;4869526;29;20953;-77
2022/09/05 15:23:01;;;;;;;13.70;13.20;;;30.30;53.10;;;;;;4877692;29;20487;-77
2022/09/05 15:25:29;;;;;;;14.70;14.20;;;30.30;53.60;;;;;;4904530;29;20459;-77
2022/09/05 15:27:57;;;;;;;14.43;13.90;;;30.30;53.80;;;;;;4906838;29;21072;-77
2022/09/05 15:30:27;;;;;;;14.40;13.90;;;30.30;53.60;;;;;;4915626;29;20457;-76
2022/09/05 15:33:13;;;;;;;14.63;13.83;;;30.40;54.30;;;;;;4915496;29;20900;-77
2022/09/05 15:35:43;;;;;;;14.83;14.23;;;30.40;53.40;;;;;;4916079;29;20454;-79
2022/09/05 15:38:33;;;;;;;14.20;13.70;;;30.30;53.60;;;;;;4915594;29;20446;-77
2022/09/05 15:41:27;;;;;;;14.90;14.40;;;30.30;53.30;;;;;;4910764;29;20577;-77
2022/09/05 15:44:02;;;;;;;14.90;14.40;;;30.40;54.00;;;;;;4879480;29;20462;-78
2022/09/05 15:46:45;;;;;;;15.13;14.50;;;30.30;53.70;;;;;;4915065;29;20494;-78
2022/09/05 15:49:22;;;;;;;13.43;13.00;;;30.30;54.10;;;;;;4915132;29;20947;-78
2022/09/05 15:51:51;;;;;;;14.53;14.03;;;30.20;54.20;;;;;;4915190;29;20541;-78
2022/09/05 15:54:26;;;;;;;15.17;14.67;;;30.10;54.70;;;;;;4915044;29;20871;-78
2022/09/05 15:57:01;;;;;;;15.73;15.13;;;30.10;54.50;;;;;;4914823;29;20511;-78
2022/09/05 15:59:45;;;;;;;15.00;14.40;;;29.90;54.50;;;;;;4914773;29;21066;-77
2022/09/05 16:02:18;;;;;;;15.07;14.57;;;29.80;55.30;;;;;;4915167;29;20974;-79
2022/09/05 16:04:49;;;;;;;15.27;14.57;;;29.60;55.60;;;;;;4913115;29;20462;-80
2022/09/05 16:07:19;;;;;;;14.90;14.20;;;29.50;56.20;;;;;;4912601;29;20880;-79
2022/09/05 16:09:50;;;;;;;13.83;13.20;;;29.40;56.50;;;;;;4914636;29;20450;-80
2022/09/05 16:12:29;;;;;;;15.13;14.63;;;29.50;56.80;;;;;;4914250;29;20458;-80
2022/09/05 16:14:58;;;;;;;14.80;14.20;;;29.40;56.70;;;;;;4914643;29;20465;-81
2022/09/05 16:17:30;;;;;;;14.40;13.90;;;29.30;56.90;;;;;;4915008;29;20624;-75
2022/09/05 16:20:03;;;;;;;14.20;13.60;;;29.40;57.20;;;;;;4915263;29;20462;-83
2022/09/05 16:22:33;;;;;;;13.00;12.50;;;29.40;57.20;;;;;;4915128;29;20475;-82
2022/09/05 16:25:05;;;;;;;14.30;13.10;;;29.30;57.60;;;;;;4913519;29;20946;-82
2022/09/05 16:27:48;;;;;;;14.23;13.43;;;29.30;57.50;;;;;;4914857;29;20741;-81
2022/09/05 16:30:24;;;;;;;14.53;14.03;;;29.20;57.50;;;;;;4915134;29;20466;-80
2022/09/05 16:32:56;;;;;;;14.90;14.10;;;29.10;58.80;;;;;;4915084;29;20473;-82
2022/09/05 16:35:23;;;;;;;15.27;14.47;;;29.00;59.40;;;;;;4914887;29;20461;-81
2022/09/05 16:37:52;;;;;;;14.20;13.20;;;29.00;59.80;;;;;;4914408;29;20485;-81
2022/09/05 16:40:25;;;;;;;13.93;13.33;;;28.90;60.50;;;;;;4914439;29;20458;-81
2022/09/05 16:42:57;;;;;;;14.60;14.10;;;28.80;60.20;;;;;;4914345;29;20455;-82
2022/09/05 16:45:32;;;;;;;15.03;14.33;;;28.80;61.00;;;;;;4914110;29;20461;-80
2022/09/05 16:48:14;;;;;;;14.30;13.80;;;28.60;61.50;;;;;;4914526;29;20632;-82
2022/09/05 16:50:46;;;;;;;13.30;12.80;;;28.50;62.70;;;;;;4914312;29;20462;-81
2022/09/05 16:53:20;;;;;;;13.73;13.23;;;28.50;63.50;;;;;;4913275;29;20950;-81
2022/09/05 16:55:53;;;;;;;15.90;15.00;;;28.30;64.80;;;;;;4914076;29;20510;-80
2022/09/05 16:58:24;;;;;;;15.53;14.83;;;28.20;66.20;;;;;;4914123;29;20586;-80
2022/09/05 17:01:02;;;;;;;16.20;14.87;;;28.20;66.80;;;;;;4913672;29;20463;-79
2022/09/05 17:03:41;;;;;;;14.37;13.83;;;28.20;66.60;;;;;;4913919;29;20485;-80
2022/09/05 17:06:19;;;;;;;13.90;13.40;;;28.20;66.10;;;;;;4913674;29;20992;-81
2022/09/05 17:08:47;;;;;;;14.97;14.13;;;28.20;66.30;;;;;;4914113;29;20462;-81
2022/09/05 17:11:17;;;;;;;15.30;14.63;;;28.10;66.70;;;;;;4913995;29;20446;-80
2022/09/05 17:13:49;;;;;;;15.73;15.00;;;28.00;67.50;;;;;;4914135;29;20450;-81
2022/09/05 17:16:25;;;;;;;15.33;14.53;;;28.00;67.90;;;;;;4913851;29;21000;-81
2022/09/05 17:18:58;;;;;;;14.90;14.20;;;27.90;69.10;;;;;;4912213;29;20457;-81
2022/09/05 17:21:30;;;;;;;16.30;15.40;;;27.90;71.50;;;;;;4913863;29;20481;-81
2022/09/05 17:24:00;;;;;;;16.70;15.90;;;27.70;74.50;;;;;;4913984;29;20812;-81
2022/09/05 17:26:35;;;;;;;17.13;16.30;;;27.60;76.80;;;;;;4913512;29;20451;-80
2022/09/05 17:29:11;;;;;;;16.07;15.27;;;27.30;78.10;;;;;;4913561;29;20461;-79
2022/09/05 17:31:47;;;;;;;16.17;15.07;;;27.20;79.20;;;;;;4913551;29;20557;-80
2022/09/05 17:34:46;;;;;;;16.60;15.77;;;27.10;79.60;;;;;;4913507;29;20461;-80
2022/09/05 17:37:49;;;;;;;17.40;16.40;;;27.00;80.40;;;;;;4913519;29;20498;-82
2022/09/05 17:40:47;;;;;;;18.33;16.93;;;26.80;82.40;;;;;;4904066;29;20462;-87
2022/09/05 17:43:24;;;;;;;18.30;16.90;;;26.60;84.20;;;;;;4913082;29;20482;-84
2022/09/05 17:45:55;;;;;;;18.23;17.07;;;26.40;85.60;;;;;;4914144;29;20465;-84
2022/09/05 17:48:55;;;;;;;17.10;15.90;;;26.40;87.20;;;;;;4913325;29;21145;-77
2022/09/05 17:52:00;;;;;;;16.67;15.37;;;26.30;89.10;;;;;;4913013;29;20450;-77
2022/09/05 17:54:28;;;;;;;16.57;15.67;;;26.10;90.50;;;;;;4913003;29;20458;-76
2022/09/05 17:56:55;;;;;;;17.00;15.97;;;25.90;91.40;;;;;;4913146;29;20530;-77
2022/09/05 17:59:27;;;;;;;16.33;15.33;;;25.80;92.40;;;;;;4912710;29;20513;-75
2022/09/05 18:02:27;;;;;;;16.40;15.50;;;25.70;93.20;;;;;;4912596;29;20465;-76
2022/09/05 18:04:54;;;;;;;16.53;15.30;;;25.60;93.70;;;;;;4910252;29;20927;-76
2022/09/05 18:07:56;;;;;;;15.70;14.70;;;25.50;94.50;;;;;;4912856;29;20498;-76
2022/09/05 18:10:58;;;;;;;15.83;14.67;;;25.50;94.90;;;;;;4912896;29;20458;-76
2022/09/05 18:13:52;;;;;;;16.03;15.00;;;25.40;95.40;;;;;;4909970;29;20712;-76
2022/09/05 18:16:32;;;;;;;16.27;15.33;;;25.30;96.10;;;;;;4903742;29;20838;-76
2022/09/05 18:19:32;;;;;;;16.43;15.37;;;25.20;96.90;;;;;;4903992;29;20873;-76
2022/09/05 18:22:05;;;;;;;16.37;15.33;;;25.10;97.20;;;;;;4903644;29;20478;-76
2022/09/05 18:24:38;;;;;;;15.10;14.27;;;25.00;97.50;;;;;;4902618;29;20519;-76
2022/09/05 18:27:20;;;;;;;14.87;14.17;;;25.00;98.00;;;;;;4902148;29;21002;-76
2022/09/05 18:29:54;;;;;;;14.60;13.80;;;24.90;98.30;;;;;;4902418;29;20475;-75
2022/09/05 18:32:45;;;;;;;14.37;13.50;;;24.80;99.00;;;;;;4901993;29;20451;-76
2022/09/05 18:35:24;;;;;;;14.63;13.30;;;24.70;99.40;;;;;;4900958;29;20467;-76
2022/09/05 18:38:06;;;;;;;14.97;13.47;;;24.60;99.90;;;;;;4902720;29;20475;-76
2022/09/05 18:40:44;;;;;;;15.67;14.67;;;24.50;99.90;;;;;;4903057;29;20450;-76
2022/09/05 18:43:18;;;;;;;14.83;13.97;;;24.40;99.90;;;;;;4902928;29;20443;-76
2022/09/05 18:45:48;;;;;;;13.50;12.97;;;24.30;99.90;;;;;;4902022;29;20450;-76
2022/09/05 18:48:20;;;;;;;15.03;14.17;;;24.30;99.90;;;;;;4902333;29;20509;-76
2022/09/05 18:50:49;;;;;;;14.13;13.37;;;24.20;99.90;;;;;;4902078;29;20451;-77
2022/09/05 18:53:22;;;;;;;13.80;13.00;;;24.10;99.90;;;;;;4902239;29;20538;-76
2022/09/05 18:55:53;;;;;;;14.90;14.20;;;24.00;99.90;;;;;;4902437;29;21114;-76
2022/09/05 18:58:25;;;;;;;14.33;13.33;;;24.00;99.90;;;;;;4901525;29;20458;-76
2022/09/05 19:00:52;;;;;;;15.50;14.47;;;24.00;99.90;;;;;;4902591;29;21023;-75
2022/09/05 19:03:24;;;;;;;14.70;13.80;;;23.90;99.90;;;;;;4903432;29;20454;-76
2022/09/05 19:05:54;;;;;;;15.17;14.30;;;23.90;99.90;;;;;;4902177;29;20455;-76
2022/09/05 19:08:24;;;;;;;15.13;14.00;;;23.90;99.90;;;;;;4901478;29;20487;-76
2022/09/05 19:10:52;;;;;;;15.10;14.10;;;23.80;99.90;;;;;;4902622;29;20442;-76
2022/09/05 19:13:23;;;;;;;16.57;15.67;;;23.80;99.90;;;;;;4903447;29;20529;-76
2022/09/05 19:15:53;;;;;;;16.13;15.00;;;23.60;99.90;;;;;;4902077;29;20447;-76
2022/09/05 19:18:23;;;;;;;16.50;15.37;;;23.50;99.90;;;;;;4904907;29;20463;-76
2022/09/05 19:21:09;;;;;;;16.53;15.53;;;23.40;99.90;;;;;;4906135;29;20847;-77
2022/09/05 19:23:43;;;;;;;15.70;14.83;;;23.30;99.90;;;;;;4906340;29;20577;-77
2022/09/05 19:26:09;;;;;;;18.23;16.93;;;23.20;99.90;;;;;;4905394;29;20531;-77
2022/09/05 19:28:40;;;;;;;17.00;16.00;;;23.20;99.90;;;;;;4905299;29;20490;-76
2022/09/05 19:31:12;;;;;;;17.80;16.50;;;23.10;99.90;;;;;;4905254;29;20831;-76
2022/09/05 19:33:41;;;;;;;17.77;16.57;;;23.00;99.90;;;;;;4904761;29;22177;-76
2022/09/05 19:36:18;;;;;;;16.37;15.43;;;23.00;99.90;;;;;;4905218;29;20504;-76
2022/09/05 19:38:49;;;;;;;17.90;16.53;;;22.90;99.90;;;;;;4905064;29;20803;-76
2022/09/05 19:41:20;;;;;;;17.33;16.03;;;22.80;99.90;;;;;;4905471;29;20442;-76
2022/09/05 19:43:57;;;;;;;17.27;16.07;;;22.80;99.90;;;;;;4905046;29;20451;-76
2022/09/05 19:46:24;;;;;;;18.93;17.30;;;22.70;99.90;;;;;;4904807;29;20525;-75
2022/09/05 19:49:01;;;;;;;17.60;16.00;;;22.60;99.90;;;;;;4905512;29;20489;-76
2022/09/05 19:51:28;;;;;;;16.90;15.77;;;22.60;99.90;;;;;;4904734;29;20532;-76
2022/09/05 19:53:56;;;;;;;17.53;16.60;;;22.50;99.90;;;;;;4905324;29;20493;-76
2022/09/05 19:56:25;;;;;;;16.47;15.33;;;22.40;99.90;;;;;;4906341;29;20454;-75
2022/09/05 19:58:52;;;;;;;17.20;16.03;;;22.40;99.90;;;;;;4905842;29;20436;-75
2022/09/05 20:01:21;;;;;;;17.47;16.17;;;22.30;99.90;;;;;;4905143;29;20451;-75
2022/09/05 20:03:50;;;;;;;17.03;15.83;;;22.30;99.90;;;;;;4905729;29;20455;-76
2022/09/05 20:06:20;;;;;;;16.87;15.63;;;22.20;99.90;;;;;;4905672;29;20450;-76
2022/09/05 20:08:47;;;;;;;17.47;16.17;;;22.10;99.90;;;;;;4904673;29;20858;-75
2022/09/05 20:11:23;;;;;;;16.53;15.53;;;22.10;99.90;;;;;;4904909;29;20452;-75
2022/09/05 20:13:49;;;;;;;17.17;15.90;;;22.10;99.90;;;;;;4904705;29;20942;-75
2022/09/05 20:16:26;;;;;;;18.57;17.07;;;22.00;99.90;;;;;;4904458;29;20461;-75
2022/09/05 20:18:53;;;;;;;17.57;16.20;;;22.00;99.90;;;;;;4905216;29;20865;-75
2022/09/05 20:21:25;;;;;;;17.47;16.30;;;21.90;99.90;;;;;;4903728;29;20471;-75
2022/09/05 20:23:54;;;;;;;18.40;17.30;;;21.80;99.90;;;;;;4904437;29;20982;-75
2022/09/05 20:26:24;;;;;;;18.80;17.40;;;21.80;99.90;;;;;;4903534;29;20476;-74
2022/09/05 20:28:57;;;;;;;18.97;17.80;;;21.80;99.90;;;;;;4904634;29;20490;-75
2022/09/05 20:31:26;;;;;;;18.10;16.90;;;21.70;99.90;;;;;;4905712;29;20458;-74
2022/09/05 20:33:56;;;;;;;16.07;15.03;;;21.60;99.90;;;;;;4904394;29;20447;-75
2022/09/05 20:36:28;;;;;;;17.70;16.60;;;21.60;99.90;;;;;;4903761;29;20546;-75
2022/09/05 20:38:59;;;;;;;16.93;15.93;;;21.60;99.90;;;;;;4904384;29;20470;-74
2022/09/05 20:41:30;;;;;;;17.20;16.10;;;21.40;99.90;;;;;;4903627;29;20451;-75
2022/09/05 20:44:00;;;;;;;17.60;16.23;;;21.40;99.90;;;;;;4904136;29;20950;-75
2022/09/05 20:46:50;;;;;;;19.37;17.53;;;21.30;99.90;;;;;;4903658;29;20463;-75
2022/09/05 20:49:19;;;;;;;18.47;16.97;;;21.30;99.90;;;;;;4905064;29;20491;-75
2022/09/05 20:51:51;;;;;;;17.50;16.30;;;21.20;99.90;;;;;;4903625;29;20550;-75
2022/09/05 20:54:20;;;;;;;16.27;15.23;;;21.20;99.90;;;;;;4903803;29;20795;-75
2022/09/05 20:56:48;;;;;;;15.70;14.70;;;21.20;99.90;;;;;;4903791;29;20454;-75
2022/09/05 20:59:24;;;;;;;17.00;15.70;;;21.20;99.90;;;;;;4904042;29;20451;-75
2022/09/05 21:01:59;;;;;;;17.27;16.30;;;21.10;99.90;;;;;;4903975;29;20868;-72
2022/09/05 21:04:32;;;;;;;17.27;15.93;;;21.10;99.90;;;;;;4903517;29;20458;-71
2022/09/05 21:07:17;;;;;;;17.00;15.80;;;21.00;99.90;;;;;;4903617;29;20537;-71
2022/09/05 21:09:50;;;;;;;15.93;14.77;;;21.00;99.90;;;;;;4905278;29;20485;-71
2022/09/05 21:12:21;;;;;;;16.80;15.27;;;20.90;99.90;;;;;;4904780;29;20451;-72
2022/09/05 21:14:48;;;;;;;16.97;15.97;;;20.90;99.90;;;;;;4903740;29;20456;-72
2022/09/05 21:17:22;;;;;;;16.87;15.67;;;20.90;99.90;;;;;;4914046;29;20461;-72
2022/09/05 21:19:55;;;;;;;16.27;15.20;;;20.90;99.90;;;;;;4913915;29;20457;-72
2022/09/05 21:22:31;;;;;;;16.30;15.40;;;20.80;99.90;;;;;;4913723;29;20474;-73
2022/09/05 21:25:23;;;;;;;15.43;14.53;;;20.80;99.90;;;;;;4913919;29;20450;-73
2022/09/05 21:28:01;;;;;;;15.33;14.50;;;20.80;99.90;;;;;;4913831;29;20821;-72
2022/09/05 21:30:30;;;;;;;16.20;15.10;;;20.70;99.90;;;;;;4913717;29;20702;-72
2022/09/05 21:33:01;;;;;;;16.30;15.30;;;20.70;99.90;;;;;;4913935;29;20466;-72
2022/09/05 21:35:27;;;;;;;16.10;14.90;;;20.70;99.90;;;;;;4913762;29;20466;-71
2022/09/05 21:37:56;;;;;;;16.73;15.77;;;20.70;99.90;;;;;;4913460;29;20561;-72
2022/09/05 21:40:23;;;;;;;16.50;15.70;;;20.60;99.90;;;;;;4913110;29;20545;-72
2022/09/05 21:42:49;;;;;;;17.33;16.00;;;20.60;99.90;;;;;;4913636;29;20465;-71
2022/09/05 21:45:17;;;;;;;16.63;15.60;;;20.50;99.90;;;;;;4913596;29;20994;-72
2022/09/05 21:47:45;;;;;;;17.33;16.27;;;20.50;99.90;;;;;;4913530;29;20552;-71
2022/09/05 21:50:12;;;;;;;17.83;16.70;;;20.40;99.90;;;;;;4913579;29;20462;-71
2022/09/05 21:52:39;;;;;;;17.10;15.97;;;20.40;99.90;;;;;;4913707;29;20465;-72
2022/09/05 21:55:08;;;;;;;17.33;16.23;;;20.30;99.90;;;;;;4913356;29;20454;-73
2022/09/05 21:57:36;;;;;;;17.13;16.03;;;20.30;99.90;;;;;;4913415;29;20462;-72
2022/09/05 22:00:05;;;;;;;17.03;15.83;;;20.20;99.90;;;;;;4913376;29;20457;-72
2022/09/05 22:02:33;;;;;;;17.43;16.33;;;20.20;99.90;;;;;;4913355;29;20458;-72
2022/09/05 22:05:00;;;;;;;17.90;16.70;;;20.20;99.90;;;;;;4913040;29;20462;-72
2022/09/05 22:07:27;;;;;;;17.30;16.00;;;20.10;99.90;;;;;;4913427;29;20466;-72
2022/09/05 22:09:54;;;;;;;17.33;16.23;;;20.10;99.90;;;;;;4913305;29;20498;-72
2022/09/05 22:12:30;;;;;;;16.90;16.00;;;20.10;99.90;;;;;;4913266;29;20453;-72
2022/09/05 22:14:57;;;;;;;16.10;15.23;;;20.10;99.90;;;;;;4913381;29;20481;-72
2022/09/05 22:17:25;;;;;;;16.60;15.70;;;20.00;99.90;;;;;;4913568;29;20941;-72
2022/09/05 22:19:52;;;;;;;16.80;15.87;;;20.00;99.90;;;;;;4913254;29;20493;-72
2022/09/05 22:22:19;;;;;;;17.77;16.57;;;20.00;99.90;;;;;;4913159;29;20854;-71
2022/09/05 22:24:50;;;;;;;17.93;16.60;;;20.00;99.90;;;;;;4913116;29;20869;-70
2022/09/05 22:27:18;;;;;;;18.50;17.37;;;20.00;99.90;;;;;;4913097;29;20995;-70
2022/09/05 22:29:47;;;;;;;18.13;17.13;;;19.90;99.90;;;;;;4913259;29;20558;-71
2022/09/05 22:32:14;;;;;;;19.07;17.67;;;19.90;99.90;;;;;;4913362;29;20514;-71
2022/09/05 22:34:41;;;;;;;18.87;17.50;;;19.90;99.90;;;;;;4913062;29;20454;-71
2022/09/05 22:37:08;;;;;;;19.40;18.17;;;19.80;99.90;;;;;;4913161;29;20903;-72
2022/09/05 22:39:34;;;;;;;19.63;18.53;;;19.80;99.90;;;;;;4913089;29;20486;-71
2022/09/05 22:42:01;;;;;;;17.87;16.73;;;19.80;99.90;;;;;;4913262;29;20465;-71
2022/09/05 22:44:28;;;;;;;17.90;16.73;;;19.70;99.90;;;;;;4913059;29;20454;-71
2022/09/05 22:46:56;;;;;;;17.87;16.67;;;19.70;99.90;;;;;;4913149;29;20506;-71
2022/09/05 22:49:22;;;;;;;17.57;16.50;;;19.60;99.90;;;;;;4913072;29;20881;-71
2022/09/05 22:51:49;;;;;;;18.00;16.63;;;19.60;99.90;;;;;;4915651;29;20870;-71
2022/09/05 22:54:16;;;;;;;18.07;17.00;;;19.50;99.90;;;;;;4917067;29;20455;-71
2022/09/05 22:56:42;;;;;;;18.73;17.63;;;19.50;99.90;;;;;;4916880;29;20454;-72
2022/09/05 22:59:13;;;;;;;18.33;17.23;;;19.50;99.90;;;;;;4916762;29;20458;-72
2022/09/05 23:01:40;;;;;;;19.07;17.67;;;19.40;99.90;;;;;;4916695;29;20524;-72
2022/09/05 23:04:08;;;;;;;18.97;17.67;;;19.40;99.90;;;;;;4916863;29;20462;-71
2022/09/05 23:06:35;;;;;;;17.90;16.93;;;19.40;99.90;;;;;;4916386;29;20462;-72
2022/09/05 23:09:01;;;;;;;19.00;17.73;;;19.40;99.90;;;;;;4916485;29;20490;-71
2022/09/05 23:11:28;;;;;;;18.93;17.83;;;19.30;99.90;;;;;;4916266;29;20946;-72
2022/09/05 23:13:55;;;;;;;18.80;17.73;;;19.30;99.90;;;;;;4916449;29;20454;-72